Time;durP1;ratioP1;P1;durP2;ratioP2;P2;SDS_P1;SDS_P2;PMS_P1;PMS_P2;Temp;Humidity;BMP_temperature;BMP_pressure;BME280_temperature;BME280_humidity;BME280_pressure;Samples;Min_cycle;Max_cycle;Signal;HPM_P1;HPM_P2
2021/07/20 00:01:36;;;;;;;24.10;22.40;;;;;;;;;;5118841;28;20418;-84
2021/07/20 00:04:05;;;;;;;25.30;23.40;;;;;;;;;;5105023;28;20440;-85
2021/07/20 00:06:32;;;;;;;26.50;24.40;;;;;;;;;;5124563;28;20952;-84
2021/07/20 00:09:00;;;;;;;27.77;24.87;;;;;;;;;;5119119;28;20424;-85
2021/07/20 00:11:27;;;;;;;26.80;24.60;;;;;;;;;;5118168;28;20912;-84
2021/07/20 00:13:55;;;;;;;24.90;23.13;;;;;;;;;;5119958;28;20594;-85
2021/07/20 00:16:24;;;;;;;24.27;22.53;;;;;;;;;;5122209;28;20788;-84
2021/07/20 00:18:57;;;;;;;26.07;24.23;;;;;;;;;;5120922;28;20923;-85
2021/07/20 00:21:24;;;;;;;25.87;23.77;;;;;;;;;;5117925;28;20613;-85
2021/07/20 00:23:52;;;;;;;25.97;23.27;;;;;;;;;;5121987;28;20415;-85
2021/07/20 00:26:19;;;;;;;26.83;24.63;;;;;;;;;;5119573;28;20526;-84
2021/07/20 00:28:47;;;;;;;25.63;23.80;;;;;;;;;;5120772;28;20422;-85
2021/07/20 00:31:15;;;;;;;26.33;24.33;;;;;;;;;;5120183;28;20832;-85
2021/07/20 00:34:09;;;;;;;25.30;23.30;;;;;;;;;;5109429;28;20448;-85
2021/07/20 00:36:38;;;;;;;25.80;23.70;;;;;;;;;;5126893;28;20417;-84
2021/07/20 00:39:06;;;;;;;26.17;24.03;;;;;;;;;;5128112;28;20422;-84
2021/07/20 00:41:34;;;;;;;27.10;24.80;;;;;;;;;;5120124;28;20437;-84
2021/07/20 00:44:01;;;;;;;26.50;24.33;;;;;;;;;;5122714;28;20444;-85
2021/07/20 00:46:29;;;;;;;26.40;24.20;;;;;;;;;;5118870;28;20418;-85
2021/07/20 00:48:57;;;;;;;26.83;24.53;;;;;;;;;;5117423;28;20433;-85
2021/07/20 00:51:25;;;;;;;25.50;23.60;;;;;;;;;;5102828;28;20430;-84
2021/07/20 00:53:53;;;;;;;25.67;23.80;;;;;;;;;;5118606;28;20401;-85
2021/07/20 00:56:20;;;;;;;26.87;24.73;;;;;;;;;;5119410;28;20456;-85
2021/07/20 00:58:49;;;;;;;27.77;24.80;;;;;;;;;;5120191;28;20420;-84
2021/07/20 01:01:17;;;;;;;26.10;23.70;;;;;;;;;;5119743;28;20543;-85
2021/07/20 01:03:44;;;;;;;25.80;23.67;;;;;;;;;;5118801;28;20456;-85
2021/07/20 01:06:14;;;;;;;25.50;23.50;;;;;;;;;;5117225;28;20481;-84
2021/07/20 01:08:41;;;;;;;26.77;24.77;;;;;;;;;;5119310;28;20436;-84
2021/07/20 01:11:09;;;;;;;26.93;24.73;;;;;;;;;;5122301;28;20411;-86
2021/07/20 01:13:38;;;;;;;23.33;21.60;;;;;;;;;;5119902;28;20448;-85
2021/07/20 01:16:15;;;;;;;27.17;25.07;;;;;;;;;;5119414;28;20479;-84
2021/07/20 01:18:42;;;;;;;25.70;23.70;;;;;;;;;;5121109;28;20446;-85
2021/07/20 01:21:11;;;;;;;25.23;23.37;;;;;;;;;;5118409;28;20459;-85
2021/07/20 01:23:43;;;;;;;24.80;23.00;;;;;;;;;;5119259;28;20411;-85
2021/07/20 01:26:10;;;;;;;25.07;23.33;;;;;;;;;;5121629;28;20436;-85
2021/07/20 01:28:38;;;;;;;25.07;23.27;;;;;;;;;;5119485;28;20420;-85
2021/07/20 01:31:15;;;;;;;25.23;23.40;;;;;;;;;;5105217;28;20414;-85
2021/07/20 01:33:44;;;;;;;25.27;23.37;;;;;;;;;;5123599;28;20432;-85
2021/07/20 01:36:11;;;;;;;25.30;23.40;;;;;;;;;;5121088;28;20456;-85
2021/07/20 01:38:42;;;;;;;24.07;22.07;;;;;;;;;;5119137;28;20432;-85
2021/07/20 01:41:11;;;;;;;25.27;23.13;;;;;;;;;;5120029;28;20451;-85
2021/07/20 01:43:41;;;;;;;24.37;22.50;;;;;;;;;;5120166;28;20448;-85
2021/07/20 01:46:09;;;;;;;24.97;23.27;;;;;;;;;;5120141;28;20412;-85
2021/07/20 01:48:38;;;;;;;26.33;24.27;;;;;;;;;;5120237;28;20410;-85
2021/07/20 01:51:05;;;;;;;24.47;22.73;;;;;;;;;;5118961;28;20486;-85
2021/07/20 01:53:33;;;;;;;25.03;23.00;;;;;;;;;;5117991;28;20444;-85
2021/07/20 01:56:03;;;;;;;25.67;23.67;;;;;;;;;;5118803;28;20435;-85
2021/07/20 01:58:30;;;;;;;23.73;21.93;;;;;;;;;;5120753;28;20426;-85
2021/07/20 02:00:58;;;;;;;24.13;22.43;;;;;;;;;;5103295;28;20482;-85
2021/07/20 02:03:47;;;;;;;24.60;22.80;;;;;;;;;;5121836;28;20427;-85
2021/07/20 02:09:01;;;;;;;23.00;21.60;;;;;;;;;;5121861;28;20448;-84
2021/07/20 02:11:34;;;;;;;23.40;21.70;;;;;;;;;;5121548;28;20839;-85
2021/07/20 02:14:04;;;;;;;23.97;22.37;;;;;;;;;;5120677;28;20406;-85
2021/07/20 02:16:34;;;;;;;23.23;21.63;;;;;;;;;;5121183;28;20472;-85
2021/07/20 02:19:03;;;;;;;25.57;23.30;;;;;;;;;;5121215;28;20416;-85
2021/07/20 02:21:36;;;;;;;22.60;20.90;;;;;;;;;;5121168;28;20485;-85
2021/07/20 02:24:05;;;;;;;22.50;20.90;;;;;;;;;;5123522;28;20451;-85
2021/07/20 02:26:34;;;;;;;23.97;22.03;;;;;;;;;;5124996;28;20405;-85
2021/07/20 02:29:03;;;;;;;23.73;22.10;;;;;;;;;;5119627;28;20422;-85
2021/07/20 02:31:31;;;;;;;24.50;22.80;;;;;;;;;;5101611;28;20446;-85
2021/07/20 02:33:58;;;;;;;25.17;23.37;;;;;;;;;;5117767;28;20893;-85
2021/07/20 02:36:26;;;;;;;23.20;21.50;;;;;;;;;;5118817;28;20460;-85
2021/07/20 02:38:54;;;;;;;23.97;22.17;;;;;;;;;;5119307;28;20447;-85
2021/07/20 02:41:22;;;;;;;23.73;22.03;;;;;;;;;;5118301;28;20465;-85
2021/07/20 02:43:52;;;;;;;23.83;21.93;;;;;;;;;;5118495;28;20431;-85
2021/07/20 02:46:19;;;;;;;22.70;21.20;;;;;;;;;;5117859;28;20416;-85
2021/07/20 02:48:47;;;;;;;21.90;20.50;;;;;;;;;;5118370;28;20445;-85
2021/07/20 02:51:17;;;;;;;24.37;22.63;;;;;;;;;;5099966;28;20494;-85
2021/07/20 02:53:47;;;;;;;25.07;23.27;;;;;;;;;;5118051;28;20457;-85
2021/07/20 02:56:15;;;;;;;23.27;21.77;;;;;;;;;;5118965;28;20448;-85
2021/07/20 02:58:43;;;;;;;24.00;22.13;;;;;;;;;;5118810;28;20444;-85
2021/07/20 03:01:13;;;;;;;24.33;22.37;;;;;;;;;;5117858;28;20465;-85
2021/07/20 03:03:40;;;;;;;24.27;22.20;;;;;;;;;;5117567;28;20806;-85
2021/07/20 03:06:11;;;;;;;23.53;22.03;;;;;;;;;;5117227;28;20480;-85
2021/07/20 03:08:38;;;;;;;22.33;20.67;;;;;;;;;;5117777;28;20423;-85
2021/07/20 03:11:08;;;;;;;23.93;21.77;;;;;;;;;;5118149;28;20960;-85
2021/07/20 03:13:37;;;;;;;23.50;21.73;;;;;;;;;;5117097;28;20922;-85
2021/07/20 03:16:08;;;;;;;23.13;21.23;;;;;;;;;;5119055;28;21030;-85
2021/07/20 03:18:38;;;;;;;21.57;20.20;;;;;;;;;;5100306;28;20445;-85
2021/07/20 03:21:07;;;;;;;22.40;20.70;;;;;;;;;;5118537;28;20483;-84
2021/07/20 03:23:35;;;;;;;22.27;20.70;;;;;;;;;;5118721;28;20464;-85
2021/07/20 03:26:03;;;;;;;22.47;20.97;;;;;;;;;;5118058;28;20484;-85
2021/07/20 03:28:30;;;;;;;23.17;21.57;;;;;;;;;;5118403;28;20455;-85
2021/07/20 03:30:58;;;;;;;24.17;22.37;;;;;;;;;;5117815;28;20414;-84
2021/07/20 03:33:26;;;;;;;22.00;20.50;;;;;;;;;;5119835;28;20412;-85
2021/07/20 03:35:55;;;;;;;23.17;21.13;;;;;;;;;;5118728;28;20449;-85
2021/07/20 03:38:23;;;;;;;23.87;22.37;;;;;;;;;;5119092;28;20409;-85
2021/07/20 03:40:52;;;;;;;22.97;21.40;;;;;;;;;;5120526;28;20487;-85
2021/07/20 03:43:20;;;;;;;23.00;21.30;;;;;;;;;;5119259;28;20408;-85
2021/07/20 03:45:49;;;;;;;21.47;19.97;;;;;;;;;;5119077;28;20430;-82
2021/07/20 03:48:17;;;;;;;22.67;21.00;;;;;;;;;;5117275;28;20427;-82
2021/07/20 03:50:46;;;;;;;22.70;21.10;;;;;;;;;;5117239;28;20788;-80
2021/07/20 03:53:16;;;;;;;22.50;21.00;;;;;;;;;;5115992;28;20406;-82
2021/07/20 03:55:44;;;;;;;22.60;21.10;;;;;;;;;;5115651;28;20430;-82
2021/07/20 03:58:14;;;;;;;23.03;21.43;;;;;;;;;;5115884;28;20784;-82
2021/07/20 04:00:41;;;;;;;22.57;20.97;;;;;;;;;;5098593;28;20450;-82
2021/07/20 04:03:24;;;;;;;22.50;20.90;;;;;;;;;;5116287;28;20411;-82
2021/07/20 04:05:54;;;;;;;22.30;20.60;;;;;;;;;;5115454;28;20486;-82
2021/07/20 04:08:23;;;;;;;23.40;21.83;;;;;;;;;;5115701;28;20442;-82
2021/07/20 04:10:52;;;;;;;22.10;20.60;;;;;;;;;;5097180;28;20561;-82
2021/07/20 04:13:20;;;;;;;22.90;21.40;;;;;;;;;;5115150;28;20410;-82
2021/07/20 04:15:54;;;;;;;21.17;19.77;;;;;;;;;;5115596;28;20463;-81
2021/07/20 04:18:21;;;;;;;21.27;19.97;;;;;;;;;;5114903;28;20415;-82
2021/07/20 04:20:49;;;;;;;23.10;21.17;;;;;;;;;;5114167;28;20492;-81
2021/07/20 04:23:19;;;;;;;22.93;21.23;;;;;;;;;;5115373;28;20411;-81
2021/07/20 04:25:48;;;;;;;22.03;20.60;;;;;;;;;;5115149;28;20441;-81
2021/07/20 04:28:16;;;;;;;22.90;21.40;;;;;;;;;;5115269;28;20910;-82
2021/07/20 04:30:45;;;;;;;22.13;20.60;;;;;;;;;;5115065;28;20417;-82
2021/07/20 04:33:14;;;;;;;22.97;21.27;;;;;;;;;;5115064;28;20438;-82
2021/07/20 04:35:41;;;;;;;22.80;21.40;;;;;;;;;;5114927;28;20422;-82
2021/07/20 04:38:09;;;;;;;23.37;21.50;;;;;;;;;;5114776;28;20418;-81
2021/07/20 04:40:38;;;;;;;22.57;21.00;;;;;;;;;;5114572;28;20447;-82
2021/07/20 04:43:08;;;;;;;23.80;22.00;;;;;;;;;;5115495;28;20844;-82
2021/07/20 04:45:36;;;;;;;22.60;21.03;;;;;;;;;;5115111;28;20448;-83
2021/07/20 04:48:04;;;;;;;22.20;20.70;;;;;;;;;;5114993;28;20432;-83
2021/07/20 04:50:31;;;;;;;21.67;20.37;;;;;;;;;;5114564;28;20463;-85
2021/07/20 04:53:00;;;;;;;24.47;22.80;;;;;;;;;;5114802;28;20425;-82
2021/07/20 04:55:30;;;;;;;21.93;20.37;;;;;;;;;;5114370;28;20427;-81
2021/07/20 04:57:57;;;;;;;22.43;20.73;;;;;;;;;;5114884;28;20415;-80
2021/07/20 05:00:26;;;;;;;23.13;21.53;;;;;;;;;;5114474;28;20924;-80
2021/07/20 05:02:54;;;;;;;23.40;21.60;;;;;;;;;;5120994;28;20442;-82
2021/07/20 05:05:24;;;;;;;22.83;21.43;;;;;;;;;;5119269;28;20476;-83
2021/07/20 05:07:52;;;;;;;22.40;20.83;;;;;;;;;;5096184;28;20422;-82
2021/07/20 05:10:20;;;;;;;22.40;20.90;;;;;;;;;;5114356;28;20412;-82
2021/07/20 05:12:48;;;;;;;23.50;22.00;;;;;;;;;;5096638;28;20830;-83
2021/07/20 05:15:16;;;;;;;22.87;21.37;;;;;;;;;;5114508;28;20461;-82
2021/07/20 05:17:46;;;;;;;24.37;22.20;;;;;;;;;;5128021;28;20421;-82
2021/07/20 05:20:14;;;;;;;22.97;21.10;;;;;;;;;;5118005;28;20448;-82
2021/07/20 05:22:42;;;;;;;25.80;23.83;;;;;;;;;;5119456;28;20462;-82
2021/07/20 05:25:10;;;;;;;29.40;22.57;;;;;;;;;;5118748;28;20912;-82
2021/07/20 05:27:38;;;;;;;24.50;23.00;;;;;;;;;;5122127;28;20866;-82
2021/07/20 05:30:07;;;;;;;24.50;22.67;;;;;;;;;;5124428;28;20426;-81
2021/07/20 05:32:36;;;;;;;23.13;21.63;;;;;;;;;;5122777;28;20741;-82
2021/07/20 05:35:06;;;;;;;26.00;24.10;;;;;;;;;;5118833;28;20411;-82
2021/07/20 05:37:35;;;;;;;25.30;23.50;;;;;;;;;;5118228;28;20416;-82
2021/07/20 05:40:02;;;;;;;23.80;22.20;;;;;;;;;;5118604;28;20461;-83
2021/07/20 05:42:30;;;;;;;24.07;22.47;;;;;;;;;;5118207;28;20468;-82
2021/07/20 05:44:57;;;;;;;24.37;22.40;;;;;;;;;;5118298;28;20434;-84
2021/07/20 05:47:25;;;;;;;24.97;23.33;;;;;;;;;;5118359;28;20434;-82
2021/07/20 05:49:53;;;;;;;24.43;22.73;;;;;;;;;;5118159;28;20426;-83
2021/07/20 05:52:22;;;;;;;24.10;22.50;;;;;;;;;;5117624;28;20431;-83
2021/07/20 05:54:50;;;;;;;24.30;22.50;;;;;;;;;;5117838;28;20413;-82
2021/07/20 05:57:18;;;;;;;26.10;24.20;;;;;;;;;;5099750;28;20450;-82
2021/07/20 05:59:46;;;;;;;24.10;22.30;;;;;;;;;;5117779;28;20904;-82
2021/07/20 06:02:14;;;;;;;24.87;23.20;;;;;;;;;;5117779;28;20477;-83
2021/07/20 06:04:43;;;;;;;25.67;23.47;;;;;;;;;;5117467;28;20468;-82
2021/07/20 06:07:11;;;;;;;24.80;23.10;;;;;;;;;;5117634;28;20428;-80
2021/07/20 06:09:43;;;;;;;23.90;22.17;;;;;;;;;;5117571;28;20430;-82
2021/07/20 06:12:11;;;;;;;24.03;22.27;;;;;;;;;;5117794;28;20437;-85
2021/07/20 06:14:39;;;;;;;25.13;23.10;;;;;;;;;;5122616;28;20428;-82
2021/07/20 06:17:07;;;;;;;25.30;23.70;;;;;;;;;;5117314;28;20452;-89
2021/07/20 06:19:35;;;;;;;26.50;24.37;;;;;;;;;;5117775;28;20449;-84
2021/07/20 06:22:04;;;;;;;25.83;23.93;;;;;;;;;;5099555;28;20480;-85
2021/07/20 06:24:33;;;;;;;25.83;24.07;;;;;;;;;;5099406;28;20847;-83
2021/07/20 06:27:02;;;;;;;25.30;23.53;;;;;;;;;;5117282;28;20438;-83
2021/07/20 06:29:31;;;;;;;26.93;24.43;;;;;;;;;;5117847;28;20440;-83
2021/07/20 06:32:01;;;;;;;25.50;23.60;;;;;;;;;;5117777;28;20415;-84
2021/07/20 06:34:28;;;;;;;25.70;23.60;;;;;;;;;;5117003;28;20459;-82
2021/07/20 06:36:56;;;;;;;25.30;23.40;;;;;;;;;;5098780;28;20856;-87
2021/07/20 06:39:24;;;;;;;27.30;24.90;;;;;;;;;;5118066;28;20453;-86
2021/07/20 06:41:52;;;;;;;26.73;24.10;;;;;;;;;;5117613;28;20475;-85
2021/07/20 06:44:22;;;;;;;24.63;23.03;;;;;;;;;;5117740;28;20457;-84
2021/07/20 06:46:50;;;;;;;25.07;23.03;;;;;;;;;;5118610;28;20793;-84
2021/07/20 06:49:19;;;;;;;26.17;24.17;;;;;;;;;;5117531;28;20452;-87
2021/07/20 06:51:46;;;;;;;24.80;23.10;;;;;;;;;;5117087;28;20444;-85
2021/07/20 06:54:14;;;;;;;24.13;22.50;;;;;;;;;;5117102;28;20416;-83
2021/07/20 06:56:44;;;;;;;25.73;23.83;;;;;;;;;;5116604;28;20408;-83
2021/07/20 06:59:14;;;;;;;24.37;22.67;;;;;;;;;;5116640;28;20435;-89
2021/07/20 07:01:45;;;;;;;24.23;22.53;;;;;;;;;;5118673;28;20502;-91
2021/07/20 07:04:22;;;;;;;25.20;22.97;;;;;;;;;;5117074;28;20457;-87
2021/07/20 07:06:50;;;;;;;25.73;23.57;;;;;;;;;;5116711;28;20445;-86
2021/07/20 07:12:21;;;;;;;24.40;22.80;;;;;;;;;;5116710;28;20457;-84
2021/07/20 07:14:49;;;;;;;26.47;24.60;;;;;;;;;;5116645;28;20415;-84
2021/07/20 07:17:18;;;;;;;25.50;23.60;;;;;;;;;;5116139;28;20868;-84
2021/07/20 07:19:46;;;;;;;27.33;25.00;;;;;;;;;;5116485;28;20903;-85
2021/07/20 07:22:15;;;;;;;27.10;24.97;;;;;;;;;;5116423;28;20485;-88
2021/07/20 07:24:44;;;;;;;25.93;24.03;;;;;;;;;;5116204;28;20426;-89
2021/07/20 07:27:11;;;;;;;27.00;24.90;;;;;;;;;;5116322;28;20438;-85
2021/07/20 07:29:40;;;;;;;26.20;24.10;;;;;;;;;;5116284;28;20428;-86
2021/07/20 07:32:07;;;;;;;26.77;24.47;;;;;;;;;;5116664;28;20425;-89
2021/07/20 07:34:37;;;;;;;24.70;22.90;;;;;;;;;;5116665;28;20450;-84
2021/07/20 07:37:06;;;;;;;25.63;23.73;;;;;;;;;;5117047;28;20485;-86
2021/07/20 07:39:34;;;;;;;26.57;24.57;;;;;;;;;;5116118;28;20437;-86
2021/07/20 07:42:02;;;;;;;27.07;25.27;;;;;;;;;;5098104;28;20539;-86
2021/07/20 07:44:29;;;;;;;28.27;25.97;;;;;;;;;;5115899;28;20952;-86
2021/07/20 07:46:58;;;;;;;27.20;25.40;;;;;;;;;;5116415;28;20433;-86
2021/07/20 07:49:27;;;;;;;24.90;23.30;;;;;;;;;;5116871;28;20425;-87
2021/07/20 07:51:56;;;;;;;26.87;24.80;;;;;;;;;;5116435;28;20518;-86
2021/07/20 07:57:19;;;;;;;28.13;25.87;;;;;;;;;;5659435;22;20470;-96
2021/07/20 07:59:50;;;;;;;26.93;24.97;;;;;;;;;;5038909;28;20446;-86
2021/07/20 08:02:21;;;;;;;25.57;23.83;;;;;;;;;;5055779;28;20529;-89
2021/07/20 08:04:49;;;;;;;26.00;24.27;;;;;;;;;;5055728;28;20464;-84
2021/07/20 08:07:18;;;;;;;25.27;23.57;;;;;;;;;;5055754;28;20937;-88
2021/07/20 08:09:47;;;;;;;26.20;24.40;;;;;;;;;;5055644;28;20436;-88
2021/07/20 08:12:15;;;;;;;27.40;25.50;;;;;;;;;;5055561;28;20786;-88
2021/07/20 08:14:44;;;;;;;26.77;24.87;;;;;;;;;;5054983;28;20825;-87
2021/07/20 08:17:12;;;;;;;26.83;24.70;;;;;;;;;;5058576;28;20445;-88
2021/07/20 08:19:40;;;;;;;25.97;24.17;;;;;;;;;;5060765;28;20415;-87
2021/07/20 08:22:10;;;;;;;26.83;25.07;;;;;;;;;;5043797;28;20856;-87
2021/07/20 08:24:41;;;;;;;26.37;24.50;;;;;;;;;;5060050;28;20424;-88
2021/07/20 08:27:13;;;;;;;26.77;24.77;;;;;;;;;;5054747;28;20435;-88
2021/07/20 08:29:44;;;;;;;26.80;24.90;;;;;;;;;;5055411;28;20419;-87
2021/07/20 08:32:13;;;;;;;25.87;24.07;;;;;;;;;;5055693;28;20749;-88
2021/07/20 08:34:43;;;;;;;25.13;23.43;;;;;;;;;;5055017;28;20430;-87
2021/07/20 08:37:11;;;;;;;26.10;24.20;;;;;;;;;;5055141;28;20444;-87
2021/07/20 08:39:40;;;;;;;27.50;25.30;;;;;;;;;;5054862;28;20903;-87
2021/07/20 08:42:13;;;;;;;24.87;23.20;;;;;;;;;;5055202;28;20844;-88
2021/07/20 08:45:00;;;;;;;25.83;24.13;;;;;;;;;;5054959;28;20488;-87
2021/07/20 08:47:33;;;;;;;25.13;23.53;;;;;;;;;;5056018;28;20544;-88
2021/07/20 08:50:18;;;;;;;25.13;23.13;;;;;;;;;;5055482;28;20454;-87
2021/07/20 08:52:47;;;;;;;25.50;23.80;;;;;;;;;;5055095;28;20436;-88
2021/07/20 08:55:18;;;;;;;26.30;24.70;;;;;;;;;;5054805;28;20445;-88
2021/07/20 08:57:48;;;;;;;25.57;23.97;;;;;;;;;;5055850;28;20486;-88
2021/07/20 09:00:16;;;;;;;25.00;23.50;;;;;;;;;;5057237;28;20453;-88
2021/07/20 09:02:48;;;;;;;24.30;22.60;;;;;;;;;;5057326;28;20484;-88
2021/07/20 09:05:20;;;;;;;24.67;22.97;;;;;;;;;;5054572;28;20448;-88
2021/07/20 09:07:55;;;;;;;23.47;21.87;;;;;;;;;;5054856;28;20441;-87
2021/07/20 09:10:25;;;;;;;24.30;22.70;;;;;;;;;;5036771;28;20428;-88
2021/07/20 09:12:54;;;;;;;24.57;22.73;;;;;;;;;;5054283;28;20441;-87
2021/07/20 09:15:25;;;;;;;23.17;21.67;;;;;;;;;;5054680;28;20457;-88
2021/07/20 09:18:01;;;;;;;23.87;22.37;;;;;;;;;;5036733;28;20431;-87
2021/07/20 09:20:31;;;;;;;22.90;21.50;;;;;;;;;;5054480;28;20448;-88
2021/07/20 09:23:02;;;;;;;23.27;21.87;;;;;;;;;;5036557;28;20482;-88
2021/07/20 09:25:33;;;;;;;24.33;22.73;;;;;;;;;;5036795;28;20507;-87
2021/07/20 09:28:02;;;;;;;23.90;22.30;;;;;;;;;;5054430;28;20442;-88
2021/07/20 09:30:31;;;;;;;25.73;24.03;;;;;;;;;;5054475;28;20439;-88
2021/07/20 09:33:04;;;;;;;23.37;21.70;;;;;;;;;;5036519;28;20454;-88
2021/07/20 09:35:36;;;;;;;24.03;22.53;;;;;;;;;;5054235;28;20540;-87
2021/07/20 09:38:11;;;;;;;23.37;21.77;;;;;;;;;;5053960;28;20500;-87
2021/07/20 09:40:45;;;;;;;23.20;21.70;;;;;;;;;;5054229;28;20942;-87
2021/07/20 09:43:19;;;;;;;23.87;22.17;;;;;;;;;;5053865;28;20583;-87
2021/07/20 09:45:49;;;;;;;24.40;22.90;;;;;;;;;;5036811;28;20456;-88
2021/07/20 09:48:23;;;;;;;24.83;23.23;;;;;;;;;;5056039;28;20454;-88
2021/07/20 09:50:57;;;;;;;25.17;23.50;;;;;;;;;;5037582;28;20457;-87
2021/07/20 09:53:39;;;;;;;24.03;22.33;;;;;;;;;;5036514;28;20526;-87
2021/07/20 09:56:21;;;;;;;22.90;21.40;;;;;;;;;;5059048;28;20413;-88
2021/07/20 09:58:58;;;;;;;22.40;20.90;;;;;;;;;;5034377;28;20469;-87
2021/07/20 10:01:29;;;;;;;23.33;21.90;;;;;;;;;;5035871;28;20775;-87
2021/07/20 10:04:01;;;;;;;23.53;22.13;;;;;;;;;;5035035;28;20501;-87
2021/07/20 10:06:33;;;;;;;23.10;21.67;;;;;;;;;;5039817;28;20753;-88
2021/07/20 10:09:02;;;;;;;24.10;22.60;;;;;;;;;;5035314;28;20449;-87
2021/07/20 10:11:32;;;;;;;22.93;21.63;;;;;;;;;;5038818;28;20454;-88
2021/07/20 10:14:10;;;;;;;23.83;22.37;;;;;;;;;;5035729;28;20412;-87
2021/07/20 10:16:45;;;;;;;24.20;22.60;;;;;;;;;;5036551;28;20443;-87
2021/07/20 10:19:15;;;;;;;22.90;21.50;;;;;;;;;;5046423;28;20433;-87
2021/07/20 10:21:44;;;;;;;24.43;22.70;;;;;;;;;;5058481;28;20476;-88
2021/07/20 10:24:14;;;;;;;22.77;21.20;;;;;;;;;;5058044;28;20496;-87
2021/07/20 10:26:45;;;;;;;24.07;22.57;;;;;;;;;;5055480;28;20460;-88
2021/07/20 10:29:17;;;;;;;22.73;21.40;;;;;;;;;;5039985;28;20421;-88
2021/07/20 10:31:47;;;;;;;23.73;22.23;;;;;;;;;;5038318;28;20444;-88
2021/07/20 10:34:17;;;;;;;23.13;21.73;;;;;;;;;;5038276;28;20441;-88
2021/07/20 10:36:47;;;;;;;23.50;22.00;;;;;;;;;;5038064;28;20451;-88
2021/07/20 10:39:17;;;;;;;24.40;22.60;;;;;;;;;;5038729;28;20834;-88
2021/07/20 10:41:50;;;;;;;22.90;21.50;;;;;;;;;;5038556;28;20438;-88
2021/07/20 10:44:23;;;;;;;22.97;21.23;;;;;;;;;;5038543;28;20479;-88
2021/07/20 10:46:52;;;;;;;22.87;21.47;;;;;;;;;;5039672;28;20936;-88
2021/07/20 10:49:24;;;;;;;22.80;21.40;;;;;;;;;;5039900;28;20440;-88
2021/07/20 10:51:51;;;;;;;23.53;22.13;;;;;;;;;;5037939;28;20443;-87
2021/07/20 10:54:26;;;;;;;23.57;22.20;;;;;;;;;;5038503;28;20818;-88
2021/07/20 10:56:57;;;;;;;23.57;21.77;;;;;;;;;;5041676;28;20459;-87
2021/07/20 10:59:45;;;;;;;23.10;21.70;;;;;;;;;;5058999;28;20423;-87
2021/07/20 11:02:18;;;;;;;23.63;22.03;;;;;;;;;;5057870;28;20444;-88
2021/07/20 11:04:48;;;;;;;23.97;22.37;;;;;;;;;;5056837;28;20494;-88
2021/07/20 11:07:18;;;;;;;23.40;21.70;;;;;;;;;;5056920;28;20460;-88
2021/07/20 11:09:46;;;;;;;24.23;22.53;;;;;;;;;;5056653;28;20433;-87
2021/07/20 11:12:14;;;;;;;23.50;22.00;;;;;;;;;;5039304;28;20549;-87
2021/07/20 11:14:45;;;;;;;23.83;22.23;;;;;;;;;;5056837;28;20429;-88
2021/07/20 11:17:14;;;;;;;22.60;21.20;;;;;;;;;;5057713;28;20438;-88
2021/07/20 11:19:41;;;;;;;24.20;22.50;;;;;;;;;;5056705;28;20434;-88
2021/07/20 11:22:10;;;;;;;24.30;22.63;;;;;;;;;;5056559;28;20445;-88
2021/07/20 11:24:38;;;;;;;24.00;22.40;;;;;;;;;;5038758;28;20486;-88
2021/07/20 11:27:06;;;;;;;24.17;22.57;;;;;;;;;;5060033;28;20412;-88
2021/07/20 11:29:34;;;;;;;23.87;22.27;;;;;;;;;;5056128;28;20441;-87
2021/07/20 11:32:05;;;;;;;23.60;22.20;;;;;;;;;;5056520;28;20416;-88
2021/07/20 11:34:37;;;;;;;23.23;21.70;;;;;;;;;;5059215;28;20446;-87
2021/07/20 11:37:07;;;;;;;24.60;23.00;;;;;;;;;;5058567;28;20419;-87
2021/07/20 11:39:36;;;;;;;24.90;23.27;;;;;;;;;;5058465;28;20409;-88
2021/07/20 11:42:07;;;;;;;24.83;23.23;;;;;;;;;;5058807;28;20745;-87
2021/07/20 11:44:43;;;;;;;23.47;21.90;;;;;;;;;;5061369;28;20460;-87
2021/07/20 11:47:15;;;;;;;24.27;22.77;;;;;;;;;;5041041;28;20427;-87
2021/07/20 11:49:45;;;;;;;24.70;22.87;;;;;;;;;;5058209;28;20412;-87
2021/07/20 11:52:14;;;;;;;25.67;23.97;;;;;;;;;;5063367;28;20575;-87
2021/07/20 11:54:46;;;;;;;25.03;23.33;;;;;;;;;;5062721;28;20424;-87
2021/07/20 11:57:29;;;;;;;24.23;22.73;;;;;;;;;;5060759;28;20477;-87
2021/07/20 12:00:14;;;;;;;26.53;24.03;;;;;;;;;;5047021;28;20473;-88
2021/07/20 12:03:06;;;;;;;26.47;24.13;;;;;;;;;;5043240;28;20549;-88
2021/07/20 12:05:46;;;;;;;24.00;22.60;;;;;;;;;;5058155;28;20549;-87
2021/07/20 12:08:23;;;;;;;24.17;22.40;;;;;;;;;;5040340;28;20421;-88
2021/07/20 12:10:54;;;;;;;24.10;22.70;;;;;;;;;;5057902;28;20441;-87
2021/07/20 12:13:22;;;;;;;24.50;22.90;;;;;;;;;;5060468;28;20441;-87
2021/07/20 12:15:53;;;;;;;25.00;23.20;;;;;;;;;;5060002;28;20430;-88
2021/07/20 12:18:21;;;;;;;23.97;22.57;;;;;;;;;;5057253;28;20439;-88
2021/07/20 12:20:50;;;;;;;23.67;22.07;;;;;;;;;;5056273;28;20899;-88
2021/07/20 12:23:18;;;;;;;24.00;22.50;;;;;;;;;;5060634;28;20485;-88
2021/07/20 12:25:46;;;;;;;24.83;23.03;;;;;;;;;;5057179;28;20429;-87
2021/07/20 12:28:13;;;;;;;24.10;22.60;;;;;;;;;;5058864;28;20413;-87
2021/07/20 12:30:42;;;;;;;24.53;22.93;;;;;;;;;;5064302;28;20432;-87
2021/07/20 12:33:14;;;;;;;24.03;22.40;;;;;;;;;;5063199;28;20425;-88
2021/07/20 12:35:49;;;;;;;24.30;22.80;;;;;;;;;;5067492;28;20416;-87
2021/07/20 12:38:22;;;;;;;24.60;23.00;;;;;;;;;;5065606;28;20412;-88
2021/07/20 12:40:50;;;;;;;24.33;22.73;;;;;;;;;;5054934;28;20420;-87
2021/07/20 12:43:18;;;;;;;24.30;22.40;;;;;;;;;;5054487;28;20569;-87
2021/07/20 12:45:47;;;;;;;25.47;23.53;;;;;;;;;;5055444;28;20416;-87
2021/07/20 12:48:24;;;;;;;25.17;23.23;;;;;;;;;;5054997;28;20414;-88
2021/07/20 12:50:52;;;;;;;24.20;22.70;;;;;;;;;;5055615;28;20434;-88
2021/07/20 12:53:22;;;;;;;23.70;22.07;;;;;;;;;;5056437;28;20405;-88
2021/07/20 12:55:50;;;;;;;23.70;22.27;;;;;;;;;;5055353;28;20439;-88
2021/07/20 12:58:18;;;;;;;26.40;24.60;;;;;;;;;;5056218;28;20477;-88
2021/07/20 13:00:46;;;;;;;25.47;23.67;;;;;;;;;;5054960;28;20446;-87
2021/07/20 13:03:14;;;;;;;25.90;24.30;;;;;;;;;;5055020;28;20486;-88
2021/07/20 13:05:42;;;;;;;25.33;23.73;;;;;;;;;;5054585;28;20428;-87
2021/07/20 13:08:10;;;;;;;25.20;23.40;;;;;;;;;;5036923;28;20443;-87
2021/07/20 13:10:39;;;;;;;25.80;23.90;;;;;;;;;;5054415;28;20435;-88
2021/07/20 13:13:07;;;;;;;24.37;22.67;;;;;;;;;;5054825;28;20438;-88
2021/07/20 13:15:35;;;;;;;23.77;22.27;;;;;;;;;;5054772;28;20464;-88
2021/07/20 13:18:04;;;;;;;25.40;23.50;;;;;;;;;;5036852;28;20950;-88
2021/07/20 13:20:32;;;;;;;24.77;23.00;;;;;;;;;;5054491;28;20937;-87
2021/07/20 13:23:00;;;;;;;23.93;22.53;;;;;;;;;;5054365;28;20449;-88
2021/07/20 13:25:28;;;;;;;23.77;22.20;;;;;;;;;;5054986;28;20438;-87
2021/07/20 13:27:58;;;;;;;24.73;23.13;;;;;;;;;;5055837;28;20438;-88
2021/07/20 13:30:27;;;;;;;24.20;22.70;;;;;;;;;;5055750;28;20457;-88
2021/07/20 13:32:55;;;;;;;24.97;23.37;;;;;;;;;;5056208;28;20437;-88
2021/07/20 13:35:23;;;;;;;25.53;24.03;;;;;;;;;;5056362;28;20447;-87
2021/07/20 13:37:53;;;;;;;24.53;22.97;;;;;;;;;;5056920;28;20449;-87
2021/07/20 13:40:21;;;;;;;24.30;22.70;;;;;;;;;;5057548;28;20940;-87
2021/07/20 13:42:49;;;;;;;23.67;21.97;;;;;;;;;;5057074;28;20454;-88
2021/07/20 13:45:19;;;;;;;24.37;22.83;;;;;;;;;;5039341;28;20827;-88
2021/07/20 13:48:05;;;;;;;24.07;22.40;;;;;;;;;;5059288;28;20419;-88
2021/07/20 13:50:34;;;;;;;24.93;23.33;;;;;;;;;;5060232;28;20419;-88
2021/07/20 13:53:03;;;;;;;25.20;23.67;;;;;;;;;;5057351;28;20521;-87
2021/07/20 13:55:31;;;;;;;24.57;23.07;;;;;;;;;;5058980;28;20457;-88
2021/07/20 13:57:59;;;;;;;26.37;24.57;;;;;;;;;;5058787;28;20546;-88
2021/07/20 14:00:30;;;;;;;23.80;22.30;;;;;;;;;;5059852;28;20427;-88
2021/07/20 14:03:00;;;;;;;24.53;22.70;;;;;;;;;;5062471;28;20446;-88
2021/07/20 14:05:28;;;;;;;24.30;22.50;;;;;;;;;;5061958;28;21065;-88
2021/07/20 14:07:56;;;;;;;23.77;22.23;;;;;;;;;;5058813;28;20465;-88
2021/07/20 14:10:24;;;;;;;24.37;22.50;;;;;;;;;;5058711;28;20426;-88
2021/07/20 14:12:51;;;;;;;24.03;22.23;;;;;;;;;;5041637;28;20495;-88
2021/07/20 14:15:19;;;;;;;24.83;23.33;;;;;;;;;;5059143;28;20902;-88
2021/07/20 14:17:49;;;;;;;24.87;23.30;;;;;;;;;;5042938;28;20508;-88
2021/07/20 14:20:19;;;;;;;23.93;22.53;;;;;;;;;;5059013;28;20466;-88
2021/07/20 14:22:46;;;;;;;24.90;23.30;;;;;;;;;;5061021;28;20446;-87
2021/07/20 14:25:14;;;;;;;24.87;23.07;;;;;;;;;;5060527;28;20481;-87
2021/07/20 14:27:41;;;;;;;24.40;22.80;;;;;;;;;;5060818;28;20461;-87
2021/07/20 14:30:10;;;;;;;24.77;23.17;;;;;;;;;;5059803;28;20429;-87
2021/07/20 14:32:39;;;;;;;24.23;22.73;;;;;;;;;;5059784;28;20446;-87
2021/07/20 14:35:09;;;;;;;25.77;24.03;;;;;;;;;;5060005;28;20438;-88
2021/07/20 14:37:38;;;;;;;24.27;22.77;;;;;;;;;;5059325;28;20875;-88
2021/07/20 14:40:07;;;;;;;24.70;22.90;;;;;;;;;;5042528;28;20944;-88